Time;durP1;ratioP1;P1;durP2;ratioP2;P2;SDS_P1;SDS_P2;PMS_P1;PMS_P2;Temp;Humidity;BMP_temperature;BMP_pressure;BME280_temperature;BME280_humidity;BME280_pressure;Samples;Min_cycle;Max_cycle;Signal;HPM_P1;HPM_P2
2023/05/12 00:01:43;;;;;;;3.80;3.00;;;8.90;82.00;;;;;;5013620;28;20217;-86
2023/05/12 00:04:09;;;;;;;6.88;3.08;;;8.80;82.30;;;;;;5046324;28;20556;-86
2023/05/12 00:06:34;;;;;;;5.27;2.70;;;8.80;82.40;;;;;;5014586;28;20181;-86
2023/05/12 00:09:00;;;;;;;4.47;2.90;;;8.80;82.30;;;;;;5014691;28;20190;-86
2023/05/12 00:11:25;;;;;;;3.87;2.90;;;8.70;82.20;;;;;;5014564;28;20243;-85
2023/05/12 00:13:53;;;;;;;5.40;3.13;;;8.70;83.10;;;;;;5014735;28;20557;-86
2023/05/12 00:16:19;;;;;;;6.80;3.10;;;8.70;83.10;;;;;;5013653;28;20661;-86
2023/05/12 00:18:44;;;;;;;5.27;2.90;;;8.70;84.20;;;;;;5014634;28;20185;-86
2023/05/12 00:21:11;;;;;;;4.50;2.60;;;8.70;83.60;;;;;;5046106;28;20627;-86
2023/05/12 00:23:37;;;;;;;7.53;3.00;;;8.60;83.80;;;;;;5029779;28;20689;-85
2023/05/12 00:26:03;;;;;;;4.30;2.13;;;8.60;84.40;;;;;;5014455;28;20683;-85
2023/05/12 00:28:28;;;;;;;3.43;2.33;;;8.60;84.50;;;;;;5046021;28;20190;-86
2023/05/12 00:30:55;;;;;;;3.73;2.67;;;8.50;84.80;;;;;;5013447;28;20195;-86
2023/05/12 00:33:21;;;;;;;3.77;2.73;;;8.50;84.40;;;;;;5012064;28;20551;-85
2023/05/12 00:35:46;;;;;;;3.87;2.43;;;8.40;86.00;;;;;;5014347;28;20182;-85
2023/05/12 00:38:12;;;;;;;5.13;3.03;;;8.40;86.50;;;;;;5013722;28;20229;-86
2023/05/12 00:40:39;;;;;;;3.53;2.67;;;8.40;86.80;;;;;;5014149;28;20181;-86
2023/05/12 00:43:05;;;;;;;4.50;2.73;;;8.40;86.80;;;;;;5013305;28;20212;-86
2023/05/12 00:45:30;;;;;;;5.63;2.73;;;8.30;87.00;;;;;;5013687;28;20563;-86
2023/05/12 00:47:56;;;;;;;8.73;3.00;;;8.30;87.00;;;;;;5014089;28;20634;-87
2023/05/12 00:50:22;;;;;;;6.30;3.30;;;8.30;87.80;;;;;;5012535;28;20186;-86
2023/05/12 00:52:48;;;;;;;3.87;2.50;;;8.30;87.90;;;;;;5013696;28;20231;-86
2023/05/12 00:55:14;;;;;;;4.77;2.77;;;8.20;87.90;;;;;;5012783;28;20729;-86
2023/05/12 00:57:41;;;;;;;4.17;2.57;;;8.20;88.90;;;;;;5013898;28;20228;-86
2023/05/12 01:00:07;;;;;;;4.50;3.00;;;8.20;88.90;;;;;;5029350;28;20204;-86
2023/05/12 01:02:34;;;;;;;4.07;3.30;;;8.20;90.30;;;;;;5013563;28;20670;-86
2023/05/12 01:04:59;;;;;;;5.50;2.50;;;8.20;90.00;;;;;;5012463;28;20547;-86
2023/05/12 01:07:26;;;;;;;7.10;2.53;;;8.10;90.20;;;;;;5013286;28;20189;-85
2023/05/12 01:09:55;;;;;;;6.13;2.53;;;8.10;90.20;;;;;;5012575;28;20188;-85
2023/05/12 01:12:25;;;;;;;4.03;2.53;;;8.10;90.50;;;;;;5012598;28;20650;-85
2023/05/12 01:14:53;;;;;;;2.83;2.63;;;8.10;90.30;;;;;;5013368;28;20204;-85
2023/05/12 01:17:21;;;;;;;4.33;3.03;;;8.00;90.60;;;;;;5046568;28;20264;-84
2023/05/12 01:19:49;;;;;;;4.33;3.17;;;8.00;90.80;;;;;;5014188;28;20655;-85
2023/05/12 01:22:17;;;;;;;6.07;3.50;;;8.00;90.60;;;;;;4996097;28;20209;-85
2023/05/12 01:24:56;;;;;;;9.87;2.97;;;8.00;90.60;;;;;;5045155;28;20272;-85
2023/05/12 01:27:24;;;;;;;6.57;2.97;;;8.00;91.10;;;;;;5013598;28;20189;-86
2023/05/12 01:29:51;;;;;;;5.73;3.40;;;8.00;91.40;;;;;;5045383;28;20276;-86
2023/05/12 01:32:17;;;;;;;4.37;2.63;;;8.00;91.70;;;;;;5045394;28;20191;-86
2023/05/12 01:34:43;;;;;;;8.80;2.97;;;7.90;91.90;;;;;;5045078;28;20280;-87
2023/05/12 01:37:10;;;;;;;4.83;3.50;;;7.90;93.30;;;;;;5013349;28;20189;-86
2023/05/12 01:39:36;;;;;;;5.83;2.90;;;7.90;92.80;;;;;;5013336;28;20639;-86
2023/05/12 01:42:05;;;;;;;4.87;2.97;;;7.80;93.60;;;;;;5012252;28;20201;-86
2023/05/12 01:44:31;;;;;;;4.97;2.90;;;7.80;93.50;;;;;;5015128;28;20185;-86
2023/05/12 01:46:57;;;;;;;5.53;2.90;;;7.80;93.00;;;;;;5049259;28;20748;-86
2023/05/12 01:49:22;;;;;;;4.30;3.00;;;7.80;93.00;;;;;;5017288;28;20185;-88
2023/05/12 01:51:48;;;;;;;3.97;2.70;;;7.80;93.10;;;;;;5017376;28;20209;-86
2023/05/12 01:54:14;;;;;;;7.03;3.80;;;7.80;93.20;;;;;;5017182;28;20214;-86
2023/05/12 01:56:40;;;;;;;6.03;3.17;;;7.80;94.10;;;;;;5031553;28;20173;-87
2023/05/12 01:59:06;;;;;;;5.33;3.43;;;7.80;93.70;;;;;;5069056;28;20181;-87
2023/05/12 02:01:32;;;;;;;5.13;2.87;;;7.70;94.40;;;;;;5038359;28;20315;-87
2023/05/12 02:03:58;;;;;;;4.17;3.03;;;7.70;94.40;;;;;;5040934;28;20197;-86
2023/05/12 02:06:27;;;;;;;4.10;2.43;;;7.70;95.40;;;;;;5041393;28;20181;-87
2023/05/12 02:08:53;;;;;;;7.37;2.57;;;;;;;;;;5040933;28;20162;-85
2023/05/12 02:11:18;;;;;;;11.23;2.93;;;7.70;94.90;;;;;;5041385;28;20245;-86
2023/05/12 02:13:44;;;;;;;4.00;2.90;;;7.60;94.70;;;;;;5040574;28;20165;-85
2023/05/12 02:16:10;;;;;;;4.37;2.83;;;7.60;95.20;;;;;;5040902;28;20197;-85
2023/05/12 02:18:36;;;;;;;4.17;3.27;;;7.60;95.30;;;;;;5041351;28;20185;-86
2023/05/12 02:21:01;;;;;;;3.53;2.87;;;7.50;95.60;;;;;;5057592;28;20220;-86
2023/05/12 02:23:27;;;;;;;4.93;3.03;;;7.50;96.20;;;;;;5057142;28;20173;-85
2023/05/12 02:25:53;;;;;;;11.20;3.40;;;7.50;96.40;;;;;;5040989;28;20165;-85
2023/05/12 02:28:18;;;;;;;4.17;3.13;;;7.50;96.30;;;;;;5054252;28;20185;-86
2023/05/12 02:30:47;;;;;;;4.13;2.70;;;7.50;96.60;;;;;;5030491;28;20181;-86
2023/05/12 02:33:13;;;;;;;4.73;3.07;;;7.40;97.40;;;;;;5050963;28;20189;-85
2023/05/12 02:35:39;;;;;;;7.27;3.33;;;7.40;97.20;;;;;;5016894;28;20181;-85
2023/05/12 02:38:05;;;;;;;3.10;2.80;;;7.30;97.20;;;;;;5016351;28;20232;-86
2023/05/12 02:40:30;;;;;;;4.10;3.03;;;7.40;97.50;;;;;;5015952;28;20669;-85
2023/05/12 02:42:56;;;;;;;3.63;2.50;;;7.30;97.80;;;;;;5016058;28;20189;-86
2023/05/12 02:45:21;;;;;;;5.23;3.10;;;7.30;98.10;;;;;;5016454;28;20182;-86
2023/05/12 02:47:47;;;;;;;4.20;3.30;;;7.30;98.50;;;;;;5047963;28;20196;-85
2023/05/12 02:50:13;;;;;;;4.10;3.20;;;7.30;98.50;;;;;;5048256;28;20181;-85
2023/05/12 02:52:39;;;;;;;5.77;3.40;;;7.20;98.20;;;;;;5031309;28;20192;-86
2023/05/12 02:55:05;;;;;;;4.93;3.57;;;7.20;99.30;;;;;;5015980;28;20189;-86
2023/05/12 02:57:32;;;;;;;4.67;3.07;;;7.20;99.20;;;;;;5016885;28;20177;-86
2023/05/12 03:00:05;;;;;;;4.67;3.00;;;7.20;99.90;;;;;;5016976;28;20201;-85
2023/05/12 03:02:36;;;;;;;9.30;3.00;;;7.20;99.90;;;;;;5015864;28;20200;-86
2023/05/12 03:05:02;;;;;;;5.83;3.30;;;7.20;99.90;;;;;;5016383;28;20670;-86
2023/05/12 03:07:28;;;;;;;5.40;3.50;;;7.20;99.90;;;;;;5015892;28;20182;-85
2023/05/12 03:09:54;;;;;;;4.30;3.13;;;7.20;99.90;;;;;;5014274;28;20191;-86
2023/05/12 03:12:20;;;;;;;9.23;3.30;;;7.20;99.90;;;;;;5015863;28;20704;-85
2023/05/12 03:14:45;;;;;;;3.37;2.90;;;7.20;99.90;;;;;;5016241;28;20185;-85
2023/05/12 03:17:11;;;;;;;3.70;3.07;;;7.20;99.90;;;;;;5015637;28;20181;-85
2023/05/12 03:19:37;;;;;;;4.57;3.00;;;7.20;99.90;;;;;;5014576;28;20177;-85
2023/05/12 03:22:03;;;;;;;5.67;3.23;;;7.20;99.90;;;;;;5030840;28;20704;-85
2023/05/12 03:24:29;;;;;;;3.80;2.77;;;7.20;99.90;;;;;;5014458;28;20188;-85
2023/05/12 03:26:55;;;;;;;5.93;3.23;;;7.30;99.90;;;;;;5016041;28;20185;-85
2023/05/12 03:29:21;;;;;;;5.70;3.17;;;7.30;99.90;;;;;;5016488;28;20185;-85
2023/05/12 03:31:46;;;;;;;6.77;2.67;;;7.30;99.90;;;;;;5019748;28;20185;-85
2023/05/12 03:34:12;;;;;;;6.23;3.67;;;7.30;99.90;;;;;;5015863;28;20240;-85
2023/05/12 03:36:38;;;;;;;4.30;3.20;;;7.10;99.90;;;;;;5006238;28;20192;-85
2023/05/12 03:39:03;;;;;;;4.00;3.20;;;7.40;99.90;;;;;;5013420;28;20311;-85
2023/05/12 03:41:29;;;;;;;4.57;3.33;;;7.50;99.90;;;;;;4995577;28;20241;-85
2023/05/12 03:43:55;;;;;;;7.70;3.67;;;7.50;99.90;;;;;;5012799;28;20197;-85
2023/05/12 03:46:21;;;;;;;7.60;3.97;;;7.60;99.90;;;;;;5012081;28;20239;-84
2023/05/12 03:48:47;;;;;;;5.43;3.40;;;7.60;99.90;;;;;;5011779;28;20710;-83
2023/05/12 03:51:12;;;;;;;6.00;3.33;;;7.70;99.90;;;;;;5013582;28;20288;-83
2023/05/12 03:53:45;;;;;;;3.60;2.60;;;7.80;99.90;;;;;;5012439;28;20555;-83
2023/05/12 03:56:11;;;;;;;9.63;4.03;;;7.80;99.90;;;;;;5012735;28;20185;-84
2023/05/12 03:58:36;;;;;;;6.63;3.60;;;7.90;98.80;;;;;;5027676;28;20786;-83
2023/05/12 04:01:02;;;;;;;3.60;2.70;;;8.00;98.10;;;;;;5012527;28;20573;-84
2023/05/12 04:03:28;;;;;;;4.83;2.97;;;8.10;98.50;;;;;;5043934;28;20196;-84
2023/05/12 04:06:01;;;;;;;5.10;3.40;;;8.20;98.60;;;;;;5010742;28;20212;-83
2023/05/12 04:08:28;;;;;;;3.50;2.80;;;8.20;97.40;;;;;;5011817;28;20189;-83
2023/05/12 04:10:57;;;;;;;3.77;3.07;;;8.40;96.50;;;;;;5010348;28;20596;-84
2023/05/12 04:13:24;;;;;;;4.73;3.03;;;8.50;96.80;;;;;;5011442;28;20212;-84
2023/05/12 04:15:50;;;;;;;7.73;3.10;;;8.70;95.80;;;;;;5043701;28;20185;-84
2023/05/12 04:18:16;;;;;;;6.30;3.20;;;8.80;95.40;;;;;;5011946;28;20614;-83
2023/05/12 04:20:43;;;;;;;6.27;3.20;;;8.90;94.40;;;;;;5010362;28;20199;-84
2023/05/12 04:23:09;;;;;;;5.00;3.10;;;9.00;93.70;;;;;;5010274;28;20235;-84
2023/05/12 04:25:41;;;;;;;3.67;2.90;;;9.10;93.50;;;;;;5010569;28;20185;-84
2023/05/12 04:28:07;;;;;;;9.57;3.67;;;9.40;94.90;;;;;;5010404;28;20205;-84
2023/05/12 04:30:33;;;;;;;6.03;3.93;;;9.40;94.80;;;;;;5009328;28;20185;-83
2023/05/12 04:32:59;;;;;;;6.90;3.43;;;9.30;93.00;;;;;;5009948;28;20197;-84
2023/05/12 04:35:24;;;;;;;5.13;2.87;;;9.40;92.10;;;;;;5012274;28;20185;-84
2023/05/12 04:37:51;;;;;;;5.22;3.22;;;9.40;91.90;;;;;;5010517;28;20303;-85
2023/05/12 04:40:16;;;;;;;4.05;3.03;;;9.40;92.00;;;;;;4993300;28;20325;-84
2023/05/12 04:42:42;;;;;;;8.07;3.60;;;9.60;91.80;;;;;;5011465;28;20300;-84
2023/05/12 04:45:08;;;;;;;5.07;3.25;;;9.60;91.40;;;;;;5012299;28;20545;-84
2023/05/12 04:47:34;;;;;;;5.28;3.47;;;9.70;90.60;;;;;;5012518;28;20208;-84
2023/05/12 04:49:59;;;;;;;8.35;3.38;;;9.70;90.90;;;;;;5010895;28;20633;-84
2023/05/12 04:52:25;;;;;;;4.65;3.17;;;9.80;90.30;;;;;;5027489;28;20193;-85
2023/05/12 04:54:52;;;;;;;4.37;3.00;;;9.80;90.10;;;;;;4993620;28;20653;-85
2023/05/12 04:57:17;;;;;;;7.40;3.17;;;9.80;90.00;;;;;;5012094;28;20261;-84
2023/05/12 04:59:43;;;;;;;4.63;2.60;;;9.90;89.60;;;;;;4994494;28;21011;-84
2023/05/12 05:02:09;;;;;;;4.38;2.95;;;9.90;90.30;;;;;;5011635;28;20212;-85
2023/05/12 05:04:35;;;;;;;9.98;3.58;;;10.00;88.70;;;;;;5010672;28;20177;-85
2023/05/12 05:07:01;;;;;;;5.68;3.28;;;10.10;88.90;;;;;;5043454;28;20523;-85
2023/05/12 05:09:26;;;;;;;8.20;3.53;;;10.20;88.70;;;;;;5011120;28;20216;-85
2023/05/12 05:11:52;;;;;;;8.48;3.40;;;10.30;88.10;;;;;;5009771;28;20490;-85
2023/05/12 05:14:17;;;;;;;5.00;3.03;;;10.50;87.90;;;;;;5012441;28;20189;-85
2023/05/12 05:16:44;;;;;;;7.07;3.70;;;10.50;86.90;;;;;;5010627;28;20181;-85
2023/05/12 05:19:10;;;;;;;4.63;2.97;;;10.70;88.00;;;;;;5009874;28;20236;-86
2023/05/12 05:21:36;;;;;;;3.85;3.00;;;9.60;86.30;;;;;;5012104;28;20196;-85
2023/05/12 05:24:01;;;;;;;5.40;2.45;;;10.80;85.20;;;;;;5010986;28;20189;-85
2023/05/12 05:26:27;;;;;;;5.05;3.35;;;10.90;85.10;;;;;;5012091;28;20174;-85
2023/05/12 05:28:54;;;;;;;5.93;3.05;;;11.00;84.10;;;;;;5013187;28;20626;-84
2023/05/12 05:31:20;;;;;;;3.50;2.85;;;11.10;85.00;;;;;;5045243;28;20181;-85
2023/05/12 05:33:46;;;;;;;10.98;2.90;;;11.20;84.60;;;;;;5013439;28;20177;-84
2023/05/12 05:36:12;;;;;;;5.85;3.20;;;11.40;84.40;;;;;;5013201;28;20181;-84
2023/05/12 05:38:38;;;;;;;8.52;3.67;;;11.50;82.80;;;;;;5011845;28;20229;-85
2023/05/12 05:41:04;;;;;;;7.80;3.03;;;11.60;81.50;;;;;;5044624;28;20569;-85
2023/05/12 05:43:30;;;;;;;5.20;3.28;;;11.80;81.80;;;;;;5013208;28;20181;-85
2023/05/12 05:45:57;;;;;;;5.05;3.00;;;11.90;81.30;;;;;;5044780;28;20208;-85
2023/05/12 05:48:25;;;;;;;5.60;3.20;;;12.00;81.10;;;;;;5012226;28;20188;-85
2023/05/12 05:50:52;;;;;;;4.53;2.55;;;12.00;80.10;;;;;;5028720;28;20541;-85
2023/05/12 05:53:21;;;;;;;3.28;2.88;;;12.10;80.50;;;;;;5011751;28;20181;-85
2023/05/12 05:55:49;;;;;;;3.80;2.92;;;12.20;80.30;;;;;;5013071;28;20704;-85
2023/05/12 05:58:15;;;;;;;10.07;3.00;;;12.40;80.60;;;;;;4996664;28;20198;-85
2023/05/12 06:00:42;;;;;;;4.18;2.70;;;12.50;79.50;;;;;;5013173;28;20165;-85
2023/05/12 06:03:08;;;;;;;6.05;2.72;;;12.60;79.00;;;;;;5044668;28;20657;-88
2023/05/12 06:05:33;;;;;;;5.32;2.92;;;12.70;78.20;;;;;;5013090;28;20177;-84
2023/05/12 06:07:59;;;;;;;6.50;3.03;;;12.90;78.70;;;;;;5012675;28;20196;-84
2023/05/12 06:10:25;;;;;;;6.97;2.78;;;13.00;78.00;;;;;;5013037;28;20261;-85
2023/05/12 06:12:51;;;;;;;2.83;2.50;;;13.10;78.20;;;;;;5013157;28;20219;-84
2023/05/12 06:15:17;;;;;;;4.80;2.55;;;13.20;77.00;;;;;;5028162;28;20181;-85
2023/05/12 06:17:43;;;;;;;7.47;2.70;;;13.40;76.40;;;;;;5013048;28;20268;-84
2023/05/12 06:20:11;;;;;;;5.70;2.80;;;13.50;75.10;;;;;;5027906;28;20192;-84
2023/05/12 06:22:37;;;;;;;6.50;2.63;;;13.60;74.30;;;;;;5012567;28;20293;-84
2023/05/12 06:25:03;;;;;;;3.22;2.08;;;13.70;73.80;;;;;;5011512;28;20596;-83
2023/05/12 06:27:29;;;;;;;10.40;2.70;;;13.70;74.80;;;;;;5012934;28;20678;-86
2023/05/12 06:29:55;;;;;;;3.42;2.40;;;13.80;73.60;;;;;;5012949;28;20209;-84
2023/05/12 06:32:20;;;;;;;4.03;2.17;;;13.80;73.00;;;;;;5047301;28;20276;-84
2023/05/12 06:34:46;;;;;;;3.97;2.90;;;13.90;73.10;;;;;;5016477;28;20253;-84
2023/05/12 06:37:11;;;;;;;5.03;2.40;;;14.00;71.40;;;;;;5014923;28;20185;-84
2023/05/12 06:39:37;;;;;;;3.63;2.22;;;14.20;71.50;;;;;;5015873;28;20181;-84
2023/05/12 06:42:03;;;;;;;3.88;2.20;;;14.20;70.50;;;;;;5047632;28;20297;-84
2023/05/12 06:44:29;;;;;;;2.95;2.22;;;14.30;69.70;;;;;;5014752;28;20214;-85
2023/05/12 06:46:55;;;;;;;6.75;2.42;;;14.40;69.20;;;;;;5031725;28;20182;-83
2023/05/12 06:49:21;;;;;;;5.57;2.60;;;14.40;69.10;;;;;;5015976;28;20220;-84
2023/05/12 06:51:46;;;;;;;5.32;2.40;;;14.50;68.90;;;;;;5014859;28;20215;-86
2023/05/12 06:54:12;;;;;;;3.30;2.03;;;14.70;68.30;;;;;;5014636;28;20173;-84
2023/05/12 06:56:38;;;;;;;3.10;2.42;;;14.80;65.80;;;;;;5015939;28;20216;-83
2023/05/12 06:59:03;;;;;;;5.00;2.13;;;14.90;65.80;;;;;;5014402;28;20203;-85
2023/05/12 07:01:30;;;;;;;4.95;2.67;;;15.00;66.60;;;;;;5014430;28;20233;-83
2023/05/12 07:03:57;;;;;;;3.40;2.30;;;15.10;66.00;;;;;;5014240;28;20185;-82
2023/05/12 07:06:23;;;;;;;8.57;2.20;;;15.30;65.30;;;;;;5015295;28;20548;-82
2023/05/12 07:08:49;;;;;;;3.40;2.70;;;15.40;65.10;;;;;;5014230;28;20181;-83
2023/05/12 07:11:21;;;;;;;3.80;2.33;;;15.60;65.50;;;;;;5014298;28;20696;-82
2023/05/12 07:13:47;;;;;;;3.00;1.95;;;15.70;62.70;;;;;;5016562;28;20200;-84
2023/05/12 07:16:14;;;;;;;2.78;2.00;;;15.70;62.20;;;;;;5015632;28;20177;-84
2023/05/12 07:18:40;;;;;;;4.90;2.15;;;15.70;62.90;;;;;;5015713;28;20186;-84
2023/05/12 07:21:05;;;;;;;5.00;2.13;;;15.90;62.20;;;;;;5047520;28;20251;-85
2023/05/12 07:23:33;;;;;;;2.70;1.90;;;16.00;60.80;;;;;;5015609;28;20211;-83
2023/05/12 07:25:59;;;;;;;4.25;2.10;;;16.10;60.20;;;;;;5015803;28;20175;-83
2023/05/12 07:28:24;;;;;;;4.38;2.42;;;16.20;59.90;;;;;;5015487;28;20626;-85
2023/05/12 07:30:50;;;;;;;2.67;2.10;;;16.30;59.70;;;;;;5015180;28;20184;-84
2023/05/12 07:33:16;;;;;;;2.42;1.42;;;16.40;59.00;;;;;;5015079;28;20642;-91
2023/05/12 07:35:41;;;;;;;3.25;2.10;;;16.40;59.60;;;;;;5030754;28;20186;-84
2023/05/12 07:38:08;;;;;;;2.78;1.63;;;16.50;58.40;;;;;;5013954;28;20264;-85
2023/05/12 07:40:34;;;;;;;4.38;2.35;;;16.50;58.40;;;;;;5015507;28;20192;-84
2023/05/12 07:43:00;;;;;;;2.35;1.65;;;16.60;56.90;;;;;;5013971;28;20212;-85
2023/05/12 07:45:25;;;;;;;1.60;1.50;;;16.70;55.30;;;;;;5015545;28;20197;-85
2023/05/12 07:47:51;;;;;;;4.18;2.20;;;16.70;54.50;;;;;;5015562;28;20185;-85
2023/05/12 07:50:17;;;;;;;5.10;2.00;;;16.80;53.90;;;;;;5015184;28;20177;-85
2023/05/12 07:52:51;;;;;;;5.90;1.75;;;16.90;54.70;;;;;;5016160;28;20188;-84
2023/05/12 07:55:18;;;;;;;1.95;1.70;;;17.00;54.20;;;;;;5047801;28;20189;-85
2023/05/12 07:57:44;;;;;;;5.30;1.48;;;17.10;52.30;;;;;;5026073;28;20232;-84
2023/05/12 08:00:10;;;;;;;4.57;1.65;;;17.20;53.90;;;;;;5024623;28;20182;-84
2023/05/12 08:02:36;;;;;;;4.15;1.90;;;17.30;51.50;;;;;;5059526;28;20212;-84
2023/05/12 08:05:03;;;;;;;1.33;1.23;;;17.40;50.70;;;;;;5032531;28;20197;-85
2023/05/12 08:07:28;;;;;;;4.68;2.03;;;17.40;49.70;;;;;;5038668;28;20166;-84
2023/05/12 08:09:54;;;;;;;2.38;1.70;;;17.40;49.30;;;;;;5071778;28;20174;-84
2023/05/12 08:12:20;;;;;;;1.60;1.50;;;17.50;48.00;;;;;;5038254;28;20174;-84
2023/05/12 08:14:46;;;;;;;2.00;1.67;;;17.50;48.00;;;;;;5038763;28;20293;-85
2023/05/12 08:17:12;;;;;;;1.95;1.75;;;17.50;47.90;;;;;;5036792;28;20177;-84
2023/05/12 08:19:37;;;;;;;2.47;1.67;;;17.60;48.50;;;;;;5036262;28;20261;-85
2023/05/12 08:22:03;;;;;;;5.15;1.75;;;17.60;48.90;;;;;;5038686;28;20211;-85
2023/05/12 08:24:29;;;;;;;1.85;1.55;;;17.70;46.60;;;;;;5071149;28;20197;-84
2023/05/12 08:26:55;;;;;;;2.83;1.58;;;17.60;46.40;;;;;;5038664;28;20169;-83
2023/05/12 08:29:21;;;;;;;2.28;1.70;;;17.60;46.40;;;;;;5016342;28;20181;-84
2023/05/12 08:31:46;;;;;;;2.22;1.58;;;17.80;46.30;;;;;;5012870;28;20593;-83
2023/05/12 08:34:12;;;;;;;2.08;1.45;;;17.80;45.80;;;;;;5014206;28;20173;-83
2023/05/12 08:36:38;;;;;;;2.53;1.60;;;17.90;46.50;;;;;;5045672;28;20676;-84
2023/05/12 08:39:05;;;;;;;1.70;1.42;;;18.10;47.20;;;;;;5014111;28;20324;-83
2023/05/12 08:42:09;;;;;;;3.17;1.75;;;18.20;46.80;;;;;;5013380;28;20202;-85
2023/05/12 08:44:36;;;;;;;6.82;1.58;;;18.40;46.90;;;;;;5012918;28;20188;-85
2023/05/12 08:47:03;;;;;;;2.10;1.23;;;18.50;46.20;;;;;;5012977;28;20188;-85
2023/05/12 08:49:31;;;;;;;5.45;1.85;;;18.50;44.10;;;;;;5028938;28;20652;-85
2023/05/12 08:52:00;;;;;;;2.08;1.40;;;18.40;43.60;;;;;;5014018;28;20180;-85
2023/05/12 08:54:27;;;;;;;5.05;1.50;;;18.30;42.90;;;;;;5013001;28;20177;-85
2023/05/12 08:56:53;;;;;;;2.35;1.58;;;18.20;43.60;;;;;;5015216;28;20524;-84
2023/05/12 08:59:20;;;;;;;6.32;1.83;;;18.10;44.10;;;;;;5014947;28;20177;-86
2023/05/12 09:01:47;;;;;;;2.47;1.70;;;18.10;42.90;;;;;;5014306;28;20277;-85
2023/05/12 09:04:16;;;;;;;2.15;1.63;;;18.20;43.80;;;;;;5029826;28;20181;-84
2023/05/12 09:06:43;;;;;;;3.03;1.67;;;18.30;44.90;;;;;;5014205;28;20658;-85
2023/05/12 09:09:11;;;;;;;2.15;1.45;;;18.40;43.30;;;;;;5014076;28;20181;-85
2023/05/12 09:11:36;;;;;;;1.65;1.35;;;18.60;43.90;;;;;;5014379;28;20177;-84
2023/05/12 09:14:07;;;;;;;2.60;1.45;;;18.60;43.50;;;;;;5046106;28;20668;-85
2023/05/12 09:16:38;;;;;;;2.60;1.92;;;18.60;43.10;;;;;;5013254;28;20543;-86
2023/05/12 09:19:03;;;;;;;1.67;1.52;;;18.70;43.40;;;;;;5012627;28;20186;-85
2023/05/12 09:21:29;;;;;;;2.10;1.80;;;18.80;43.90;;;;;;5045120;28;20678;-85
2023/05/12 09:24:04;;;;;;;1.45;1.20;;;18.80;43.00;;;;;;5031336;28;20575;-85
2023/05/12 09:26:32;;;;;;;2.00;1.65;;;18.70;43.90;;;;;;4996646;28;20223;-84
2023/05/12 09:29:05;;;;;;;1.60;1.50;;;18.90;43.40;;;;;;5024802;28;20718;-83
2023/05/12 09:31:31;;;;;;;10.07;2.00;;;19.00;43.20;;;;;;5066676;28;20228;-83
2023/05/12 09:33:57;;;;;;;2.53;1.48;;;19.00;43.00;;;;;;5049615;28;20193;-83
2023/05/12 09:36:25;;;;;;;2.55;1.40;;;19.20;42.60;;;;;;5013299;28;20173;-84
2023/05/12 09:39:05;;;;;;;3.78;1.95;;;19.10;42.00;;;;;;4995904;28;20624;-83
2023/05/12 09:41:35;;;;;;;6.80;1.67;;;19.20;42.20;;;;;;5013229;28;20193;-84
2023/05/12 09:44:02;;;;;;;3.47;1.45;;;19.30;41.80;;;;;;5012520;28;20192;-84
2023/05/12 09:46:28;;;;;;;18.98;3.83;;;19.30;42.90;;;;;;5013228;28;20205;-84
2023/05/12 09:48:56;;;;;;;7.68;2.53;;;19.60;43.10;;;;;;5013786;28;20220;-84
2023/05/12 09:51:22;;;;;;;13.35;2.70;;;19.60;42.10;;;;;;5012128;28;20526;-84
2023/05/12 09:53:48;;;;;;;27.98;4.82;;;19.70;42.20;;;;;;5013497;28;20619;-84
2023/05/12 09:56:15;;;;;;;6.95;2.08;;;19.80;43.60;;;;;;5012374;28;20174;-84
2023/05/12 09:58:43;;;;;;;2.67;1.80;;;19.90;41.20;;;;;;5044570;28;20192;-84
2023/05/12 10:01:11;;;;;;;5.65;2.95;;;20.10;41.50;;;;;;5044808;28;20197;-84
2023/05/12 10:03:38;;;;;;;5.53;1.55;;;20.00;41.40;;;;;;5012863;28;20236;-83
2023/05/12 10:06:06;;;;;;;2.10;1.30;;;20.20;42.00;;;;;;5013811;28;20173;-84
2023/05/12 10:09:17;;;;;;;1.70;1.33;;;20.20;40.40;;;;;;5016709;28;20181;-85
2023/05/12 10:11:44;;;;;;;2.05;1.10;;;20.10;40.90;;;;;;4996919;28;20189;-84
2023/05/12 10:14:12;;;;;;;1.95;1.20;;;20.20;40.80;;;;;;5016657;28;20573;-83
2023/05/12 10:16:39;;;;;;;4.00;1.60;;;20.30;41.10;;;;;;5048746;28;20188;-83
2023/05/12 10:19:05;;;;;;;2.92;1.50;;;20.20;38.80;;;;;;5015761;28;20185;-88
2023/05/12 10:21:31;;;;;;;2.33;1.25;;;20.30;39.80;;;;;;5016689;28;20728;-84
2023/05/12 10:23:57;;;;;;;4.65;1.48;;;20.10;38.50;;;;;;5018023;28;20186;-83
2023/05/12 10:26:23;;;;;;;2.05;1.42;;;20.10;39.50;;;;;;5016724;28;20654;-84
2023/05/12 10:28:51;;;;;;;1.55;1.42;;;20.10;39.20;;;;;;5016425;28;20188;-84
2023/05/12 10:31:18;;;;;;;1.50;1.30;;;20.20;40.10;;;;;;5016570;28;20701;-84
2023/05/12 10:33:54;;;;;;;2.00;1.70;;;20.20;39.70;;;;;;5016061;28;20200;-84
2023/05/12 10:36:19;;;;;;;3.05;1.25;;;20.30;40.10;;;;;;5015533;28;20174;-84
2023/05/12 10:38:50;;;;;;;3.28;1.45;;;20.60;39.90;;;;;;5016463;28;20233;-85
2023/05/12 10:41:16;;;;;;;1.70;1.40;;;20.40;38.50;;;;;;5048343;28;20293;-85
2023/05/12 10:43:47;;;;;;;1.65;1.40;;;20.30;38.40;;;;;;5047826;28;20185;-85
2023/05/12 10:46:18;;;;;;;1.55;1.38;;;20.30;38.90;;;;;;5016642;28;20176;-84
2023/05/12 10:48:52;;;;;;;2.75;1.25;;;20.30;39.10;;;;;;5016156;28;20235;-85
2023/05/12 10:51:21;;;;;;;1.90;1.40;;;20.40;37.90;;;;;;5015901;28;20173;-84
2023/05/12 10:53:50;;;;;;;2.20;1.42;;;20.40;38.30;;;;;;5015878;28;20184;-83
2023/05/12 10:56:37;;;;;;;4.53;1.30;;;20.60;38.80;;;;;;5048126;28;20177;-84
2023/05/12 10:59:17;;;;;;;3.08;1.60;;;20.70;38.30;;;;;;5002132;28;20193;-84
2023/05/12 11:02:04;;;;;;;1.80;1.40;;;20.70;38.20;;;;;;5015730;28;20228;-84
2023/05/12 11:04:51;;;;;;;1.42;1.33;;;20.70;39.10;;;;;;5002920;28;20199;-84
2023/05/12 11:07:22;;;;;;;6.70;1.92;;;20.70;37.90;;;;;;5015060;28;20537;-83
2023/05/12 11:09:48;;;;;;;1.20;1.10;;;20.70;39.70;;;;;;4999288;28;20185;-83
2023/05/12 11:12:14;;;;;;;1.52;1.10;;;20.80;39.90;;;;;;5014656;28;20177;-83
2023/05/12 11:14:43;;;;;;;1.83;1.42;;;20.90;37.10;;;;;;5014637;28;20182;-83
2023/05/12 11:17:09;;;;;;;4.43;1.75;;;21.10;38.60;;;;;;5015272;28;20181;-86
2023/05/12 11:19:36;;;;;;;2.28;1.27;;;21.20;38.10;;;;;;5047774;28;20529;-84
2023/05/12 11:22:10;;;;;;;2.53;1.70;;;21.40;38.30;;;;;;5014219;28;20223;-85
2023/05/12 11:24:38;;;;;;;2.33;1.27;;;21.10;37.20;;;;;;5047484;28;20533;-85
2023/05/12 11:27:04;;;;;;;2.25;1.50;;;20.90;37.80;;;;;;5016013;28;20173;-84
2023/05/12 11:29:30;;;;;;;1.55;1.38;;;21.00;38.10;;;;;;5015440;28;20174;-83
2023/05/12 11:31:57;;;;;;;4.00;1.40;;;20.80;37.60;;;;;;5046986;28;20213;-84
2023/05/12 11:34:25;;;;;;;1.70;1.30;;;20.70;38.70;;;;;;5014264;28;20177;-84
2023/05/12 11:36:55;;;;;;;1.67;1.17;;;20.80;38.80;;;;;;5046878;28;20181;-84
2023/05/12 11:39:26;;;;;;;7.85;1.60;;;20.90;39.60;;;;;;5015036;28;20260;-84
2023/05/12 11:41:53;;;;;;;4.82;1.20;;;21.10;37.60;;;;;;5014930;28;20232;-83
2023/05/12 11:44:25;;;;;;;2.20;1.55;;;21.20;37.70;;;;;;5014977;28;20220;-84
2023/05/12 11:47:00;;;;;;;1.38;1.25;;;21.20;38.20;;;;;;5013903;28;20181;-84
2023/05/12 11:49:27;;;;;;;2.53;1.45;;;21.30;39.00;;;;;;5046967;28;20267;-84
2023/05/12 11:51:54;;;;;;;1.52;1.20;;;21.40;39.00;;;;;;5014656;28;20192;-84
2023/05/12 11:54:21;;;;;;;2.30;1.20;;;21.40;36.50;;;;;;5013794;28;20174;-84
2023/05/12 11:56:54;;;;;;;1.23;1.13;;;21.40;37.10;;;;;;5014829;28;20178;-86
2023/05/12 11:59:28;;;;;;;2.75;1.67;;;21.20;37.70;;;;;;5015025;28;20715;-85
2023/05/12 12:01:54;;;;;;;2.65;1.48;;;21.30;37.70;;;;;;5014488;28;20220;-85
2023/05/12 12:04:37;;;;;;;1.75;1.40;;;21.20;37.80;;;;;;5014693;28;20618;-83
2023/05/12 12:07:07;;;;;;;2.05;1.10;;;21.40;39.20;;;;;;5014487;28;20619;-84
2023/05/12 12:09:37;;;;;;;6.22;1.45;;;21.60;39.50;;;;;;5046619;28;20200;-83
2023/05/12 12:12:04;;;;;;;1.73;1.40;;;21.50;37.40;;;;;;5014083;28;20555;-83
2023/05/12 12:14:31;;;;;;;1.98;1.60;;;21.10;37.20;;;;;;5014466;28;20177;-84
2023/05/12 12:16:57;;;;;;;1.65;1.30;;;20.70;38.00;;;;;;5045959;28;20533;-85
2023/05/12 12:19:24;;;;;;;2.25;1.58;;;20.70;38.30;;;;;;5013251;28;20177;-84
2023/05/12 12:21:50;;;;;;;2.58;1.55;;;20.70;38.10;;;;;;5012572;28;20220;-84
2023/05/12 12:24:16;;;;;;;3.00;1.30;;;20.80;38.30;;;;;;5045894;28;20193;-83
2023/05/12 12:26:43;;;;;;;1.83;1.27;;;21.10;39.40;;;;;;5013756;28;20201;-84
2023/05/12 12:29:08;;;;;;;1.98;1.33;;;21.20;37.90;;;;;;5012564;28;20239;-83
2023/05/12 12:31:35;;;;;;;1.55;1.30;;;21.30;36.90;;;;;;5012815;28;20184;-84
2023/05/12 12:34:02;;;;;;;1.40;1.30;;;21.50;38.70;;;;;;5012663;28;20193;-84
2023/05/12 12:36:28;;;;;;;1.35;1.10;;;21.40;37.80;;;;;;5011769;28;20541;-84
2023/05/12 12:38:53;;;;;;;3.58;1.40;;;21.50;37.80;;;;;;5012760;28;20233;-83
2023/05/12 12:41:19;;;;;;;2.55;1.35;;;21.40;37.00;;;;;;4995412;28;20623;-84
2023/05/12 12:43:45;;;;;;;1.75;1.38;;;21.30;37.40;;;;;;5013000;28;20242;-83
2023/05/12 12:46:11;;;;;;;2.65;1.33;;;21.40;39.40;;;;;;5011653;28;20185;-84
2023/05/12 12:48:36;;;;;;;2.05;1.20;;;21.50;36.70;;;;;;5013968;28;20174;-86
2023/05/12 12:51:02;;;;;;;1.52;1.20;;;21.60;37.30;;;;;;5012135;28;20216;-84